Time;durP1;ratioP1;P1;durP2;ratioP2;P2;SDS_P1;SDS_P2;PMS_P1;PMS_P2;Temp;Humidity;BMP_temperature;BMP_pressure;BME280_temperature;BME280_humidity;BME280_pressure;Samples;Min_cycle;Max_cycle;Signal;HPM_P1;HPM_P2
2021/07/13 00:00:12;;;;;;;10.95;8.68;;;;;;;20.76;69.99;100864.97;5073859;28;20047;-54
2021/07/13 00:02:40;;;;;;;14.50;8.55;;;;;;;20.74;70.06;100864.47;5073114;28;20074;-54
2021/07/13 00:05:12;;;;;;;12.27;9.35;;;;;;;20.72;70.10;100864.00;5073888;28;20044;-53
2021/07/13 00:07:43;;;;;;;10.98;8.50;;;;;;;20.67;70.43;100861.44;5073640;28;20514;-56
2021/07/13 00:10:13;;;;;;;12.27;9.05;;;;;;;20.64;70.45;100857.38;5073672;28;20044;-51
2021/07/13 00:12:41;;;;;;;11.18;8.10;;;;;;;20.64;70.45;100862.09;5073191;28;20158;-54
2021/07/13 00:15:18;;;;;;;12.52;8.77;;;;;;;20.66;70.40;100865.34;5073415;28;20044;-55
2021/07/13 00:17:46;;;;;;;11.65;8.55;;;;;;;20.64;70.39;100859.34;5073834;28;20036;-57
2021/07/13 00:20:14;;;;;;;12.43;9.02;;;;;;;20.61;70.52;100860.00;5073771;28;20064;-56
2021/07/13 00:22:41;;;;;;;13.00;9.40;;;;;;;20.60;70.74;100864.72;5073277;28;20036;-54
2021/07/13 00:25:10;;;;;;;12.00;9.85;;;;;;;20.62;70.87;100869.94;5073368;28;20044;-56
2021/07/13 00:27:41;;;;;;;13.80;10.07;;;;;;;20.59;70.93;100871.41;5073046;28;20075;-56
2021/07/13 00:30:11;;;;;;;14.18;10.18;;;;;;;20.59;70.86;100876.94;5073262;28;20041;-57
2021/07/13 00:32:39;;;;;;;14.18;10.02;;;;;;;20.60;70.93;100875.78;5073100;28;20136;-56
2021/07/13 00:35:08;;;;;;;12.95;9.70;;;;;;;20.60;70.72;100886.06;5073244;28;20044;-56
2021/07/13 00:37:35;;;;;;;13.00;9.73;;;;;;;20.61;70.72;100898.75;5073187;28;20049;-58
2021/07/13 00:40:05;;;;;;;12.45;9.73;;;;;;;20.60;70.82;100899.91;5073036;28;20059;-57
2021/07/13 00:42:33;;;;;;;13.02;8.73;;;;;;;20.62;70.75;100903.16;5072626;28;20036;-58
2021/07/13 00:45:00;;;;;;;22.30;9.15;;;;;;;20.64;70.75;100909.97;5072940;28;20044;-56
2021/07/13 00:47:28;;;;;;;15.52;10.00;;;;;;;20.66;70.76;100897.75;5073061;28;20048;-54
2021/07/13 00:49:56;;;;;;;16.55;9.93;;;;;;;20.64;70.62;100895.34;5072534;28;20040;-56
2021/07/13 00:52:23;;;;;;;12.15;9.82;;;;;;;20.63;70.82;100890.94;5055332;28;20044;-55
2021/07/13 00:54:51;;;;;;;13.35;10.10;;;;;;;20.62;70.76;100889.31;5072438;28;20052;-56
2021/07/13 00:57:19;;;;;;;12.63;10.52;;;;;;;20.59;70.81;100885.25;5088376;28;20036;-56
2021/07/13 00:59:47;;;;;;;14.15;10.30;;;;;;;;;;5071285;28;20041;-57
2021/07/13 01:02:16;;;;;;;13.82;10.57;;;;;;;20.55;71.04;100875.16;5072358;28;20036;-57
2021/07/13 01:04:49;;;;;;;14.10;10.73;;;;;;;20.55;71.12;100873.22;5072178;28;20064;-57
2021/07/13 01:07:22;;;;;;;12.88;10.50;;;;;;;20.54;71.22;100874.34;5072736;28;20029;-55
2021/07/13 01:10:01;;;;;;;13.15;10.70;;;;;;;20.53;71.44;100867.19;5071901;28;20495;-56
2021/07/13 01:12:34;;;;;;;13.70;9.98;;;;;;;20.53;71.31;100866.38;5072426;28;20044;-54
2021/07/13 01:15:04;;;;;;;13.85;10.38;;;;;;;20.55;71.18;100858.53;5071420;28;20045;-55
2021/07/13 01:18:09;;;;;;;13.25;9.90;;;;;;;20.53;71.43;100853.34;5072390;28;20131;-56
2021/07/13 01:20:53;;;;;;;13.48;10.77;;;;;;;20.48;71.66;100842.47;5010508;28;20385;-55
2021/07/13 01:23:48;;;;;;;13.13;11.02;;;;;;;20.45;71.74;100842.31;4993679;28;20053;-52
2021/07/13 01:26:17;;;;;;;14.25;10.95;;;;;;;20.39;71.82;100842.50;5010295;28;20086;-57
2021/07/13 01:28:49;;;;;;;12.57;10.57;;;;;;;20.38;71.99;100843.66;4994110;28;20073;-56
2021/07/13 01:31:18;;;;;;;19.45;10.40;;;;;;;20.42;71.85;100843.81;4994110;28;20050;-56
2021/07/13 01:33:50;;;;;;;16.75;11.50;;;;;;;20.43;71.80;100840.69;4993921;28;20052;-57
2021/07/13 01:36:30;;;;;;;15.85;10.68;;;;;;;20.43;71.53;100843.47;5010152;28;20141;-57
2021/07/13 01:39:01;;;;;;;12.60;9.57;;;;;;;20.44;71.37;100852.56;4993515;28;20492;-54
2021/07/13 01:41:30;;;;;;;12.27;9.52;;;;;;;20.49;71.32;100846.03;4994026;28;20149;-57
2021/07/13 01:43:58;;;;;;;10.13;8.40;;;;;;;20.52;71.22;100845.38;4977381;28;20054;-57
2021/07/13 01:46:27;;;;;;;11.32;8.60;;;;;;;20.54;71.14;100849.44;5009753;28;20057;-56
2021/07/13 01:49:01;;;;;;;17.20;11.50;;;;;;;20.57;71.27;100859.06;4994434;28;20038;-55
2021/07/13 01:51:30;;;;;;;13.73;11.55;;;;;;;20.53;71.05;100858.88;5010191;28;20038;-56
2021/07/13 01:54:05;;;;;;;15.18;11.90;;;;;;;20.47;71.51;100856.63;5005058;28;20067;-58
2021/07/13 01:56:34;;;;;;;14.52;12.10;;;;;;;20.45;71.70;100862.50;5054428;28;20036;-57
2021/07/13 01:59:04;;;;;;;16.20;11.98;;;;;;;20.43;71.59;100868.38;5054260;28;20048;-54
2021/07/13 02:01:32;;;;;;;19.17;11.13;;;;;;;20.44;71.90;100871.94;5054331;28;20036;-53
2021/07/13 02:04:04;;;;;;;12.95;10.25;;;;;;;20.40;71.85;100862.69;5054214;28;20061;-54
2021/07/13 02:06:31;;;;;;;15.15;11.00;;;;;;;20.36;72.10;100876.38;5037685;28;20049;-52
2021/07/13 02:09:06;;;;;;;12.00;10.40;;;;;;;20.34;72.35;100870.38;5071412;28;20041;-52
2021/07/13 02:11:35;;;;;;;13.65;10.27;;;;;;;20.31;72.51;100865.50;5057810;28;20044;-55
2021/07/13 02:14:03;;;;;;;13.77;9.98;;;;;;;20.28;72.74;100855.09;5054012;28;20052;-55
2021/07/13 02:16:31;;;;;;;13.45;10.15;;;;;;;20.28;72.66;100860.66;5071362;28;20123;-56
2021/07/13 02:18:58;;;;;;;14.32;10.25;;;;;;;20.29;72.36;100853.94;5071983;28;20064;-54
2021/07/13 02:21:26;;;;;;;13.30;10.10;;;;;;;20.31;72.33;100853.63;5071416;28;20040;-57
2021/07/13 02:23:53;;;;;;;9.88;7.43;;;;;;;20.34;72.41;100855.72;5071473;28;20041;-58
2021/07/13 02:26:24;;;;;;;11.43;8.63;;;;;;;20.36;72.16;100857.00;5073769;28;20041;-53
2021/07/13 02:28:59;;;;;;;13.48;9.63;;;;;;;20.39;72.12;100856.34;5058185;28;20040;-55
2021/07/13 02:31:32;;;;;;;12.98;10.63;;;;;;;20.40;72.07;100857.16;5057659;28;20051;-54
2021/07/13 02:34:09;;;;;;;12.77;10.80;;;;;;;20.37;72.17;100857.81;5075681;28;20040;-57
2021/07/13 02:36:45;;;;;;;14.02;9.80;;;;;;;20.33;72.27;100857.69;5057535;28;20044;-56
2021/07/13 02:39:14;;;;;;;12.60;10.57;;;;;;;20.32;72.44;100856.03;5075406;28;20071;-56
2021/07/13 02:41:43;;;;;;;16.75;10.55;;;;;;;20.29;72.69;100845.66;5075265;28;20048;-53
2021/07/13 02:44:11;;;;;;;13.88;10.07;;;;;;;20.27;72.58;100836.88;5057526;28;20040;-56
2021/07/13 02:46:43;;;;;;;14.25;10.98;;;;;;;20.27;72.72;100836.88;5057330;28;20048;-57
2021/07/13 02:49:15;;;;;;;12.95;10.88;;;;;;;20.25;72.68;100828.09;5058339;28;20107;-53
2021/07/13 02:51:43;;;;;;;13.07;10.27;;;;;;;20.24;72.88;100825.66;5074403;28;20044;-56
2021/07/13 02:54:11;;;;;;;15.10;11.85;;;;;;;20.24;72.83;100825.66;5075207;28;20048;-55
2021/07/13 02:56:40;;;;;;;12.52;10.57;;;;;;;20.20;73.13;100828.28;5057419;28;20044;-57
2021/07/13 02:59:08;;;;;;;14.50;10.60;;;;;;;20.19;73.21;100829.44;5057325;28;20422;-56
2021/07/13 03:01:36;;;;;;;17.35;10.98;;;;;;;20.21;73.14;100835.44;5057175;28;20040;-56
2021/07/13 03:04:05;;;;;;;14.48;11.02;;;;;;;20.21;72.98;100830.72;5056524;28;20072;-53
2021/07/13 03:06:33;;;;;;;16.40;10.88;;;;;;;20.21;73.07;100829.91;5056966;28;20048;-55
2021/07/13 03:09:01;;;;;;;14.27;10.77;;;;;;;20.19;72.98;100830.25;5056991;28;20503;-57
2021/07/13 03:11:34;;;;;;;12.95;9.63;;;;;;;20.21;73.17;100835.44;5074840;28;20054;-57
2021/07/13 03:14:06;;;;;;;13.60;10.45;;;;;;;20.25;72.92;100830.84;5056555;28;20059;-57
2021/07/13 03:16:36;;;;;;;14.32;11.15;;;;;;;20.27;72.81;100825.81;5074705;28;20048;-56
2021/07/13 03:19:08;;;;;;;15.23;12.43;;;;;;;20.27;72.77;100825.81;5074697;28;20037;-55
2021/07/13 03:21:41;;;;;;;13.48;11.15;;;;;;;20.27;72.67;100823.03;5056428;28;20407;-56
2021/07/13 03:24:09;;;;;;;17.98;12.05;;;;;;;20.27;72.82;100813.94;5057129;28;20049;-57
2021/07/13 03:26:39;;;;;;;16.67;11.93;;;;;;;20.27;73.00;100813.94;5057152;28;20037;-56
2021/07/13 03:29:08;;;;;;;22.75;13.48;;;;;;;20.26;72.86;100810.34;5074876;28;20098;-56
2021/07/13 03:31:36;;;;;;;16.52;11.70;;;;;;;20.25;73.00;100805.94;5056717;28;20077;-56
2021/07/13 03:34:05;;;;;;;15.20;12.35;;;;;;;20.23;72.94;100813.78;5074390;28;20040;-57
2021/07/13 03:36:33;;;;;;;16.98;12.00;;;;;;;20.20;73.22;100815.28;5074213;28;20111;-59
2021/07/13 03:39:01;;;;;;;14.70;11.70;;;;;;;20.16;73.50;100811.53;5056139;28;20047;-55
2021/07/13 03:41:29;;;;;;;16.55;11.88;;;;;;;20.13;73.75;100819.69;5074453;28;20044;-55
2021/07/13 03:44:00;;;;;;;14.88;12.20;;;;;;;20.08;73.90;100811.56;5074181;28;20041;-59
2021/07/13 03:46:36;;;;;;;15.18;12.25;;;;;;;20.03;73.88;100809.00;5074333;28;20049;-56
2021/07/13 03:49:05;;;;;;;16.50;11.05;;;;;;;20.02;73.84;100810.97;5042884;28;20062;-56
2021/07/13 03:51:41;;;;;;;15.73;11.15;;;;;;;20.00;74.04;100811.28;5056305;28;20051;-55
2021/07/13 03:54:11;;;;;;;16.02;11.80;;;;;;;19.96;74.08;100815.88;5074161;28;20051;-56
2021/07/13 03:56:39;;;;;;;18.27;12.32;;;;;;;19.94;74.35;100822.84;5074219;28;20517;-56
2021/07/13 03:59:06;;;;;;;19.00;12.23;;;;;;;19.88;74.32;100815.91;5073946;28;20035;-55
2021/07/13 04:01:35;;;;;;;20.80;11.70;;;;;;;19.87;74.40;100823.38;5056075;28;20422;-55
2021/07/13 04:04:03;;;;;;;15.75;11.95;;;;;;;19.87;74.55;100806.81;5055130;28;20125;-56
2021/07/13 04:06:32;;;;;;;14.30;11.82;;;;;;;19.89;74.42;100810.03;5073845;28;20076;-58
2021/07/13 04:09:00;;;;;;;18.90;12.18;;;;;;;19.91;74.37;100824.31;5073720;28;20060;-56
2021/07/13 04:11:28;;;;;;;17.88;11.55;;;;;;;19.90;74.36;100827.44;5073663;28;20049;-56
2021/07/13 04:13:55;;;;;;;14.68;11.50;;;;;;;19.90;74.44;100817.19;5055795;28;20123;-54
2021/07/13 04:16:23;;;;;;;15.50;11.25;;;;;;;19.90;74.54;100825.47;5073200;28;20037;-58
2021/07/13 04:18:50;;;;;;;15.85;11.93;;;;;;;19.92;74.37;100825.16;5073073;28;20044;-55
2021/07/13 04:21:18;;;;;;;15.40;11.20;;;;;;;19.92;74.40;100825.97;5073603;28;20380;-55
2021/07/13 04:23:45;;;;;;;16.35;12.25;;;;;;;19.92;74.34;100827.94;5073360;28;20067;-56
2021/07/13 04:26:13;;;;;;;15.77;11.65;;;;;;;19.92;74.49;100831.50;5073280;28;20041;-59
2021/07/13 04:28:40;;;;;;;16.00;12.60;;;;;;;19.93;74.21;100827.56;5073500;28;20054;-56
2021/07/13 04:31:08;;;;;;;17.10;12.60;;;;;;;19.92;74.25;100834.25;5073404;28;20050;-58
2021/07/13 04:33:36;;;;;;;16.05;11.55;;;;;;;19.91;74.43;100840.91;5072722;28;20106;-58
2021/07/13 04:36:04;;;;;;;19.23;13.15;;;;;;;19.89;74.39;100837.69;5073113;28;20040;-57
2021/07/13 04:38:31;;;;;;;16.13;12.65;;;;;;;19.88;74.49;100841.59;5073292;28;20055;-57
2021/07/13 04:40:59;;;;;;;20.05;13.48;;;;;;;19.88;74.43;100841.59;5072991;28;20494;-55
2021/07/13 04:43:26;;;;;;;14.00;11.95;;;;;;;19.87;74.60;100851.03;5054941;28;20041;-57
2021/07/13 04:45:58;;;;;;;17.02;12.95;;;;;;;19.88;74.74;100849.88;5072927;28;20122;-55
2021/07/13 04:48:26;;;;;;;15.30;13.40;;;;;;;19.86;74.72;100843.88;5072199;28;20044;-56
2021/07/13 04:50:54;;;;;;;19.23;15.02;;;;;;;19.85;74.56;100845.03;5072588;28;20044;-56
2021/07/13 04:53:21;;;;;;;20.08;15.68;;;;;;;19.82;74.66;100842.94;5072764;28;20057;-53
2021/07/13 04:55:48;;;;;;;18.70;14.48;;;;;;;19.82;74.74;100840.16;5072993;28;20048;-57
2021/07/13 04:58:16;;;;;;;18.27;14.85;;;;;;;19.84;74.74;100845.34;5072872;28;20040;-58
2021/07/13 05:00:43;;;;;;;19.85;14.70;;;;;;;19.88;74.69;100835.25;5072337;28;20090;-57
2021/07/13 05:03:11;;;;;;;19.27;15.70;;;;;;;19.90;74.68;100842.06;5072380;28;20442;-56
2021/07/13 05:05:41;;;;;;;21.23;16.80;;;;;;;19.89;74.61;100845.16;5072327;28;20055;-56
2021/07/13 05:08:09;;;;;;;19.95;17.33;;;;;;;19.84;74.89;100846.16;5072323;28;20050;-56
2021/07/13 05:10:36;;;;;;;22.58;19.70;;;;;;;19.83;75.08;100838.19;5072411;28;20040;-55
2021/07/13 05:13:09;;;;;;;22.48;18.23;;;;;;;19.79;75.36;100846.34;5072297;28;20036;-58
2021/07/13 05:15:39;;;;;;;24.73;19.65;;;;;;;19.78;75.51;100844.72;5072108;28;20044;-51
2021/07/13 05:18:08;;;;;;;21.85;18.38;;;;;;;19.77;75.57;100848.59;5071740;28;20376;-57
2021/07/13 05:20:36;;;;;;;22.08;19.20;;;;;;;19.77;75.69;100843.06;5072472;28;20041;-56
2021/07/13 05:23:07;;;;;;;22.10;19.27;;;;;;;19.78;75.68;100853.00;5072148;28;20052;-55
2021/07/13 05:25:35;;;;;;;23.40;20.10;;;;;;;19.78;75.59;100844.72;5072283;28;20044;-55
2021/07/13 05:28:04;;;;;;;22.15;19.75;;;;;;;19.79;75.73;100851.88;5072270;28;20047;-52
2021/07/13 05:30:32;;;;;;;21.40;19.08;;;;;;;19.78;75.92;100844.72;5071790;28;20071;-54
2021/07/13 05:32:59;;;;;;;24.75;22.08;;;;;;;19.78;76.11;100847.47;5071737;28;20048;-52
2021/07/13 05:35:27;;;;;;;25.73;22.05;;;;;;;19.77;76.26;100845.84;5063666;28;20098;-53
2021/07/13 05:37:55;;;;;;;25.05;22.33;;;;;;;19.75;76.35;100848.16;5071835;28;20052;-54
2021/07/13 05:40:22;;;;;;;24.35;21.02;;;;;;;19.73;76.68;100842.94;5072085;28;20523;-53
2021/07/13 05:42:50;;;;;;;25.85;22.65;;;;;;;19.72;76.67;100844.09;5072076;28;20048;-52
2021/07/13 05:45:17;;;;;;;28.23;23.60;;;;;;;19.70;76.96;100845.53;5071199;28;20048;-56
2021/07/13 05:47:45;;;;;;;25.17;22.17;;;;;;;19.68;77.31;100840.34;5071787;28;20411;-55
2021/07/13 05:50:13;;;;;;;24.33;21.77;;;;;;;19.71;77.12;100847.97;5071743;28;20045;-55
2021/07/13 05:52:41;;;;;;;25.70;21.52;;;;;;;19.75;77.14;100842.63;5071887;28;20048;-52
2021/07/13 05:55:09;;;;;;;26.70;23.80;;;;;;;19.77;77.34;100845.84;5071803;28;20040;-54
2021/07/13 05:57:37;;;;;;;31.98;24.27;;;;;;;19.80;77.47;100856.28;5072011;28;20052;-51
2021/07/13 06:00:07;;;;;;;29.30;24.42;;;;;;;19.82;77.52;100858.69;5071903;28;20033;-55
2021/07/13 06:02:40;;;;;;;27.33;24.40;;;;;;;19.72;78.08;100865.38;5065957;28;20054;-53
2021/07/13 06:05:08;;;;;;;30.30;26.42;;;;;;;19.65;78.56;100865.03;5078343;28;20061;-54
2021/07/13 06:07:47;;;;;;;28.55;25.55;;;;;;;19.59;78.87;100859.69;5060384;28;20094;-53
2021/07/13 06:10:17;;;;;;;28.63;24.45;;;;;;;19.59;78.82;100876.28;4375403;28;9999798;-55
2021/07/13 06:12:46;;;;;;;23.90;21.40;;;;;;;19.65;78.90;100870.56;5075683;28;20558;-52
2021/07/13 06:15:14;;;;;;;30.67;25.77;;;;;;;19.72;79.09;100870.91;5075075;28;20048;-53
2021/07/13 06:17:42;;;;;;;29.00;23.02;;;;;;;19.72;78.68;100873.66;5075803;28;20048;-55
2021/07/13 06:20:11;;;;;;;27.48;21.77;;;;;;;19.73;78.98;100867.03;5076160;28;20048;-53
2021/07/13 06:22:39;;;;;;;30.95;27.42;;;;;;;19.76;78.98;100871.88;5075964;28;20033;-54
2021/07/13 06:25:08;;;;;;;28.48;25.48;;;;;;;19.72;79.10;100873.66;5075997;28;20045;-52
2021/07/13 06:27:36;;;;;;;24.25;21.67;;;;;;;19.75;78.93;100870.28;5076375;28;20068;-51
2021/07/13 06:30:07;;;;;;;30.20;26.60;;;;;;;19.75;78.98;100875.81;5075382;28;20082;-52
2021/07/13 06:32:35;;;;;;;25.80;22.60;;;;;;;19.72;79.39;100877.28;5057808;28;20040;-55
2021/07/13 06:35:03;;;;;;;28.73;25.65;;;;;;;19.68;79.68;100869.97;5075532;28;20051;-55
2021/07/13 06:37:31;;;;;;;30.40;27.02;;;;;;;19.71;79.60;100880.34;5057848;28;20049;-56
2021/07/13 06:39:58;;;;;;;28.63;23.35;;;;;;;19.70;79.66;100873.19;5077080;28;20094;-56
2021/07/13 06:42:26;;;;;;;29.75;26.60;;;;;;;19.74;79.94;100876.91;5076060;28;20048;-55
2021/07/13 06:44:54;;;;;;;35.65;30.10;;;;;;;19.76;79.80;100878.22;5075999;28;20045;-56
2021/07/13 06:47:21;;;;;;;31.60;28.13;;;;;;;19.75;79.71;100879.38;5077051;28;20101;-58
2021/07/13 06:49:50;;;;;;;33.45;28.35;;;;;;;19.72;80.08;100881.97;5079978;28;20048;-56
2021/07/13 06:52:18;;;;;;;34.78;29.33;;;;;;;19.71;80.35;100877.59;5078908;28;20040;-56
2021/07/13 06:54:45;;;;;;;31.42;25.55;;;;;;;19.71;80.27;100874.81;5077839;28;20052;-56
2021/07/13 06:57:13;;;;;;;29.20;26.08;;;;;;;19.75;80.00;100881.34;5077549;28;20039;-49
2021/07/13 06:59:40;;;;;;;28.92;25.35;;;;;;;19.76;80.02;100883.75;5077555;28;20131;-49
2021/07/13 07:02:09;;;;;;;31.73;28.23;;;;;;;19.79;80.08;100876.75;5077436;28;20044;-50
2021/07/13 07:04:37;;;;;;;37.85;29.25;;;;;;;19.81;80.30;100888.28;5077690;28;20080;-50
2021/07/13 07:07:04;;;;;;;37.33;30.95;;;;;;;19.81;80.82;100893.81;5077599;28;20124;-52
2021/07/13 07:09:32;;;;;;;35.20;30.65;;;;;;;19.68;81.20;100892.88;5077780;28;20044;-53
2021/07/13 07:12:00;;;;;;;32.90;29.35;;;;;;;19.66;81.47;100886.03;5075764;28;20110;-57
2021/07/13 07:14:28;;;;;;;34.90;29.45;;;;;;;19.67;81.41;100895.94;5074097;28;20037;-54
2021/07/13 07:16:55;;;;;;;31.45;26.23;;;;;;;19.70;81.32;100895.31;5074821;28;20044;-54
2021/07/13 07:19:23;;;;;;;32.33;28.83;;;;;;;19.66;81.60;100900.66;5074494;28;20048;-53
2021/07/13 07:21:50;;;;;;;35.60;31.63;;;;;;;19.65;81.93;100903.75;5074647;28;20091;-56
2021/07/13 07:24:19;;;;;;;36.50;31.13;;;;;;;19.59;82.44;100903.91;5074373;28;20055;-53
2021/07/13 07:26:46;;;;;;;33.35;29.75;;;;;;;19.57;82.73;100906.19;5073908;28;20426;-55
2021/07/13 07:29:14;;;;;;;33.92;30.30;;;;;;;19.59;82.81;100895.63;5056664;28;20044;-53
2021/07/13 07:31:42;;;;;;;38.33;32.58;;;;;;;19.64;82.84;100902.13;5074237;28;20043;-51
2021/07/13 07:34:10;;;;;;;36.03;32.22;;;;;;;19.63;82.53;100906.03;5074165;28;20048;-52
2021/07/13 07:36:37;;;;;;;26.73;23.60;;;;;;;19.62;82.57;100910.72;5074050;28;20048;-53
2021/07/13 07:39:05;;;;;;;33.72;30.10;;;;;;;19.67;82.21;100907.00;5074256;28;20028;-53
2021/07/13 07:41:33;;;;;;;35.85;29.48;;;;;;;19.67;82.10;100916.09;5073330;28;20044;-52
2021/07/13 07:44:00;;;;;;;36.88;32.88;;;;;;;19.71;82.23;100922.63;5074211;28;20052;-49
2021/07/13 07:46:29;;;;;;;34.67;27.10;;;;;;;19.75;81.96;100918.06;5073827;28;20495;-53
2021/07/13 07:48:58;;;;;;;35.80;30.70;;;;;;;19.80;82.03;100914.34;5073899;28;20036;-52
2021/07/13 07:51:26;;;;;;;38.63;28.73;;;;;;;19.79;81.95;100915.44;5073721;28;20495;-50
2021/07/13 07:53:54;;;;;;;34.10;30.45;;;;;;;19.76;81.70;100922.47;5073743;28;20044;-51
2021/07/13 07:56:23;;;;;;;34.95;28.50;;;;;;;19.71;82.26;100914.34;5073609;28;20055;-53
2021/07/13 07:58:51;;;;;;;38.17;32.28;;;;;;;19.67;82.51;100918.06;5074055;28;20108;-51
2021/07/13 08:01:18;;;;;;;35.10;31.30;;;;;;;19.64;82.71;100907.66;5073828;28;20032;-53
2021/07/13 08:03:46;;;;;;;37.72;32.28;;;;;;;19.62;82.64;100904.41;5073290;28;20066;-51
2021/07/13 08:06:14;;;;;;;34.83;31.23;;;;;;;19.59;82.78;100911.41;5073812;28;20067;-52
2021/07/13 08:08:41;;;;;;;35.65;31.65;;;;;;;19.54;82.85;100909.59;5055677;28;20056;-50
2021/07/13 08:11:10;;;;;;;37.45;31.58;;;;;;;19.59;82.84;100914.97;5072978;28;20051;-50
2021/07/13 08:13:38;;;;;;;30.50;26.60;;;;;;;19.65;82.83;100909.25;5073372;28;20509;-52
2021/07/13 08:16:06;;;;;;;35.65;31.83;;;;;;;19.68;82.92;100905.91;5073306;28;20539;-51
2021/07/13 08:18:34;;;;;;;36.05;32.25;;;;;;;19.71;82.72;100900.50;5073429;28;20042;-53
2021/07/13 08:21:01;;;;;;;35.35;30.15;;;;;;;19.77;82.50;100906.66;5073420;28;20080;-51
2021/07/13 08:23:29;;;;;;;42.03;33.05;;;;;;;19.79;83.01;100898.88;5072833;28;20495;-50
2021/07/13 08:25:56;;;;;;;39.10;33.50;;;;;;;19.72;82.34;100893.84;5072816;28;20452;-51
2021/07/13 08:28:24;;;;;;;39.47;33.78;;;;;;;19.67;82.87;100891.22;5073028;28;20410;-49
2021/07/13 08:30:51;;;;;;;35.63;29.83;;;;;;;19.71;83.13;100903.28;5070771;28;20503;-54
2021/07/13 08:33:19;;;;;;;38.50;34.10;;;;;;;19.74;82.99;100908.13;5072981;28;20047;-50
2021/07/13 08:35:48;;;;;;;38.70;33.22;;;;;;;19.76;82.91;100899.53;5071900;28;20049;-50
2021/07/13 08:38:16;;;;;;;37.13;33.13;;;;;;;19.72;82.74;100906.84;5072743;28;20036;-53
2021/07/13 08:40:43;;;;;;;39.10;34.63;;;;;;;19.69;83.36;100899.22;5072176;28;20044;-52
2021/07/13 08:43:11;;;;;;;37.95;33.97;;;;;;;19.67;83.74;100895.94;5072931;28;20546;-55
2021/07/13 08:45:39;;;;;;;39.40;35.08;;;;;;;19.66;84.08;100894.31;5071980;28;20062;-54
2021/07/13 08:48:07;;;;;;;42.30;37.67;;;;;;;19.66;84.33;100899.84;5055074;28;20399;-51
2021/07/13 08:50:35;;;;;;;43.60;38.67;;;;;;;19.70;84.03;100898.06;5053542;28;20044;-51
2021/07/13 08:53:04;;;;;;;42.95;38.35;;;;;;;19.64;84.30;100891.06;5054932;28;20097;-51
2021/07/13 08:55:34;;;;;;;41.42;36.75;;;;;;;19.62;84.46;100893.34;5071988;28;20079;-52
2021/07/13 08:58:02;;;;;;;43.00;36.35;;;;;;;19.62;84.47;100893.34;5072648;28;20055;-52
2021/07/13 09:00:30;;;;;;;41.33;36.83;;;;;;;19.62;84.73;100904.41;5071763;28;20090;-54
2021/07/13 09:03:23;;;;;;;43.72;38.08;;;;;;;19.62;84.75;100904.41;5072231;28;20047;-52
2021/07/13 09:06:02;;;;;;;40.63;36.30;;;;;;;19.58;85.05;100899.53;5068981;28;20052;-53
2021/07/13 09:08:31;;;;;;;43.13;38.03;;;;;;;19.61;85.40;100903.59;5071590;28;20048;-53
2021/07/13 09:11:00;;;;;;;42.50;37.30;;;;;;;19.68;85.21;100909.47;5072077;28;20522;-55
2021/07/13 09:13:30;;;;;;;39.33;35.03;;;;;;;19.68;84.87;100911.44;5072355;28;20040;-53
2021/07/13 09:15:59;;;;;;;36.97;32.97;;;;;;;19.67;85.13;100907.78;5071831;28;20080;-54
2021/07/13 09:18:32;;;;;;;38.40;32.65;;;;;;;19.75;85.13;100903.44;5072118;28;20132;-55
2021/07/13 09:21:20;;;;;;;35.75;31.85;;;;;;;19.75;85.26;100908.97;5072236;28;20086;-56
2021/07/13 09:24:20;;;;;;;33.63;29.77;;;;;;;19.73;84.56;100905.72;5060582;28;20041;-55
2021/07/13 09:26:54;;;;;;;37.05;31.33;;;;;;;19.78;84.89;100913.84;5072261;28;20035;-54
2021/07/13 09:29:36;;;;;;;37.93;29.33;;;;;;;19.80;84.64;100894.97;5072060;28;20075;-55
2021/07/13 09:32:26;;;;;;;32.60;28.35;;;;;;;19.85;84.45;100896.75;5058539;28;20849;-55
2021/07/13 09:35:05;;;;;;;32.53;27.83;;;;;;;19.85;83.98;100896.75;5053508;28;20102;-52
2021/07/13 09:37:47;;;;;;;30.90;27.48;;;;;;;19.87;84.04;100892.53;5053663;28;20101;-50
2021/07/13 09:40:17;;;;;;;33.08;27.38;;;;;;;19.88;83.62;100883.06;5071767;28;20039;-55
2021/07/13 09:42:52;;;;;;;29.17;26.08;;;;;;;19.92;83.58;100886.81;5072130;28;20491;-53
2021/07/13 09:45:30;;;;;;;29.67;26.43;;;;;;;19.95;83.16;100877.03;5071305;28;20491;-51
2021/07/13 09:48:09;;;;;;;32.38;25.83;;;;;;;19.98;83.15;100888.25;5071955;28;20474;-54
2021/07/13 09:50:57;;;;;;;29.77;25.55;;;;;;;19.93;82.25;100893.94;5071531;28;20044;-52
2021/07/13 09:53:25;;;;;;;27.80;23.92;;;;;;;19.90;82.17;100894.63;5053475;28;20044;-49
2021/07/13 09:55:56;;;;;;;27.75;23.25;;;;;;;19.85;82.33;100903.09;5071714;28;20040;-51
2021/07/13 09:58:26;;;;;;;26.55;22.85;;;;;;;19.88;82.61;100905.19;5071435;28;20036;-50
2021/07/13 10:00:58;;;;;;;24.10;21.20;;;;;;;19.90;82.90;100913.97;5070984;28;20608;-52
2021/07/13 10:03:27;;;;;;;28.83;22.85;;;;;;;19.97;82.87;100911.53;5071720;28;20127;-53
2021/07/13 10:05:56;;;;;;;32.67;22.60;;;;;;;20.01;82.33;100922.72;5070981;28;20127;-55
2021/07/13 10:08:24;;;;;;;23.38;20.13;;;;;;;19.98;81.24;100923.38;5053594;28;20055;-52
2021/07/13 10:10:52;;;;;;;23.65;21.00;;;;;;;19.97;81.39;100917.06;5053193;28;20406;-52
2021/07/13 10:13:20;;;;;;;25.60;21.90;;;;;;;19.95;81.29;100922.09;5054081;28;20044;-55
2021/07/13 10:15:49;;;;;;;23.10;19.20;;;;;;;19.91;80.98;100929.41;5071454;28;20151;-54
2021/07/13 10:18:22;;;;;;;24.25;20.52;;;;;;;19.87;81.36;100928.47;5054264;28;20051;-52
2021/07/13 10:20:51;;;;;;;23.10;19.85;;;;;;;19.91;82.03;100929.41;5053397;28;20062;-49
2021/07/13 10:23:19;;;;;;;26.80;23.08;;;;;;;19.95;82.07;100938.69;5053307;28;20032;-51
2021/07/13 10:25:46;;;;;;;31.13;23.92;;;;;;;19.93;82.27;100932.66;5053964;28;20110;-49
2021/07/13 10:28:20;;;;;;;29.75;25.25;;;;;;;19.92;83.22;100933.03;5071884;28;20364;-54
2021/07/13 10:30:49;;;;;;;31.52;25.92;;;;;;;19.93;83.27;100924.38;5071034;28;20045;-51
2021/07/13 10:33:37;;;;;;;31.92;25.27;;;;;;;19.92;83.49;100928.28;5071188;28;20059;-52
2021/07/13 10:36:28;;;;;;;34.22;27.60;;;;;;;19.95;83.65;100929.59;5070911;28;20048;-52
2021/07/13 10:39:25;;;;;;;36.88;29.02;;;;;;;19.97;83.70;100919.81;5058613;28;20090;-52
2021/07/13 10:41:54;;;;;;;34.10;28.45;;;;;;;20.00;84.02;100921.09;5071450;28;20441;-52
2021/07/13 10:44:45;;;;;;;34.85;28.52;;;;;;;20.03;84.19;100917.69;5071223;28;20056;-53
2021/07/13 10:47:30;;;;;;;33.47;28.40;;;;;;;20.08;84.14;100916.69;5071507;28;20048;-51
2021/07/13 10:50:16;;;;;;;28.42;22.42;;;;;;;20.16;83.76;100913.91;4372922;28;10020735;-53
2021/07/13 10:52:51;;;;;;;;;;;;;;;20.15;84.14;100914.22;5062226;28;20078;-53
2021/07/13 10:55:31;;;;;;;34.17;28.50;;;;;;;20.15;83.94;100920.56;5072893;28;19924;-52
2021/07/13 10:58:13;;;;;;;35.08;28.70;;;;;;;20.20;83.56;100919.56;5073089;28;20051;-55
2021/07/13 11:00:58;;;;;;;34.70;29.10;;;;;;;20.25;84.04;100924.13;5072201;28;20055;-53
2021/07/13 11:03:32;;;;;;;36.83;30.65;;;;;;;20.26;83.51;100915.50;5072062;28;20092;-53
2021/07/13 11:06:16;;;;;;;35.78;28.85;;;;;;;20.21;83.45;100921.22;5072401;28;20028;-52
2021/07/13 11:08:44;;;;;;;36.22;29.80;;;;;;;20.19;83.34;100924.31;5054596;28;20053;-50
2021/07/13 11:11:14;;;;;;;35.42;30.10;;;;;;;20.21;83.49;100932.28;5054227;28;20048;-53
2021/07/13 11:13:46;;;;;;;32.35;28.30;;;;;;;20.20;83.05;100936.19;5071939;28;20059;-49
2021/07/13 11:16:16;;;;;;;36.28;31.02;;;;;;;20.22;82.99;100945.78;5072185;28;20052;-54
2021/07/13 11:18:43;;;;;;;34.60;29.55;;;;;;;20.22;83.27;100939.44;5054412;28;20461;-56
2021/07/13 11:21:20;;;;;;;35.05;30.02;;;;;;;20.21;83.14;100935.84;5072075;28;20052;-55
2021/07/13 11:24:08;;;;;;;33.75;29.55;;;;;;;20.22;83.70;100933.91;5072266;28;20120;-51
2021/07/13 11:26:44;;;;;;;37.10;31.20;;;;;;;20.21;83.65;100938.63;5048156;28;20052;-56